Time;durP1;ratioP1;P1;durP2;ratioP2;P2;SDS_P1;SDS_P2;PMS_P1;PMS_P2;Temp;Humidity;BMP_temperature;BMP_pressure;BME280_temperature;BME280_humidity;BME280_pressure;Samples;Min_cycle;Max_cycle;Signal;HPM_P1;HPM_P2
2022/10/23 00:01:50;;;;;;;11.53;5.13;;;13.30;99.90;;;;;;21089170;28;20237;-74
2022/10/23 00:11:52;;;;;;;12.23;5.00;;;13.10;99.90;;;;;;21086479;28;20204;-74
2022/10/23 00:21:54;;;;;;;13.77;4.33;;;13.10;99.90;;;;;;21083976;28;20269;-75
2022/10/23 00:31:55;;;;;;;7.50;4.50;;;13.00;99.90;;;;;;21082559;28;20229;-73
2022/10/23 00:41:57;;;;;;;10.97;5.10;;;13.00;99.90;;;;;;21083657;28;20706;-74
2022/10/23 00:52:03;;;;;;;15.43;5.37;;;12.90;99.90;;;;;;21084035;28;20199;-75
2022/10/23 01:02:05;;;;;;;12.53;5.00;;;12.90;99.90;;;;;;21082896;28;20307;-75
2022/10/23 01:12:15;;;;;;;12.50;5.93;;;12.80;99.90;;;;;;21082171;28;20199;-74
2022/10/23 01:22:31;;;;;;;10.57;5.00;;;12.70;99.90;;;;;;21082400;28;20236;-73
2022/10/23 01:32:53;;;;;;;19.80;5.97;;;12.60;99.90;;;;;;21080874;28;20258;-74
2022/10/23 01:42:59;;;;;;;14.00;5.60;;;12.30;99.90;;;;;;21079262;28;20608;-74
2022/10/23 01:53:03;;;;;;;29.67;10.40;;;12.30;99.90;;;;;;21079844;28;20206;-74
2022/10/23 02:03:07;;;;;;;57.90;13.80;;;12.60;99.90;;;;;;21079185;28;20238;-74
2022/10/23 02:13:48;;;;;;;14.93;6.33;;;12.60;99.90;;;;;;21078676;28;20327;-74
2022/10/23 02:24:13;;;;;;;15.80;6.47;;;12.50;99.90;;;;;;21076854;28;20382;-75
2022/10/23 02:34:14;;;;;;;20.37;6.17;;;12.50;99.90;;;;;;21075442;28;20812;-74
2022/10/23 02:44:44;;;;;;;52.40;8.37;;;12.60;99.90;;;;;;21077446;28;20235;-74
2022/10/23 02:55:23;;;;;;;44.13;6.30;;;12.40;99.90;;;;;;21092578;28;20211;-74
2022/10/23 03:05:31;;;;;;;59.17;5.90;;;12.40;99.90;;;;;;21092603;28;20234;-74
2022/10/23 03:15:32;;;;;;;20.43;5.33;;;12.30;99.90;;;;;;21091897;28;20207;-74
2022/10/23 03:25:34;;;;;;;30.17;5.13;;;12.30;99.90;;;;;;21091299;28;20725;-74
2022/10/23 03:35:36;;;;;;;13.80;4.90;;;12.30;99.90;;;;;;21090213;28;20633;-74
2022/10/23 03:45:37;;;;;;;79.50;5.57;;;12.30;99.90;;;;;;21089653;28;20693;-74
2022/10/23 03:55:39;;;;;;;7.80;5.20;;;12.20;99.90;;;;;;21088339;28;20207;-76
2022/10/23 04:05:42;;;;;;;52.63;5.90;;;12.20;99.90;;;;;;21087070;28;20234;-75
2022/10/23 04:15:52;;;;;;;85.97;5.93;;;12.10;99.90;;;;;;21087126;28;20208;-75
2022/10/23 04:25:57;;;;;;;25.00;5.07;;;11.90;99.90;;;;;;21083370;28;20568;-74
2022/10/23 04:35:59;;;;;;;18.23;4.83;;;11.80;99.90;;;;;;21083473;28;20248;-76
2022/10/23 04:46:01;;;;;;;5.50;4.47;;;11.80;99.90;;;;;;21114887;28;20225;-74
2022/10/23 04:56:02;;;;;;;15.67;4.50;;;11.70;99.90;;;;;;21083291;28;20215;-75
2022/10/23 05:06:05;;;;;;;11.87;4.30;;;11.80;99.90;;;;;;21152766;28;20580;-74
2022/10/23 05:16:06;;;;;;;14.10;4.50;;;11.70;99.90;;;;;;21166827;28;20547;-76
2022/10/23 05:26:08;;;;;;;12.90;4.53;;;11.80;99.90;;;;;;21164283;28;20252;-73
2022/10/23 05:36:15;;;;;;;48.57;5.57;;;11.70;99.90;;;;;;21150019;28;20250;-73
2022/10/23 05:46:16;;;;;;;14.50;3.90;;;11.70;99.90;;;;;;21079878;28;20232;-73
2022/10/23 05:56:18;;;;;;;7.57;4.60;;;11.60;99.90;;;;;;21079099;28;20209;-73
2022/10/23 06:06:20;;;;;;;23.87;4.60;;;11.60;99.90;;;;;;21079017;28;20239;-71
2022/10/23 06:16:26;;;;;;;30.50;5.00;;;11.70;99.90;;;;;;21078227;28;20231;-71
2022/10/23 06:26:28;;;;;;;43.77;4.97;;;11.60;99.90;;;;;;21088585;28;20297;-75
2022/10/23 06:36:30;;;;;;;33.60;5.43;;;11.60;99.90;;;;;;21095130;28;20228;-74
2022/10/23 06:46:33;;;;;;;12.87;4.93;;;11.60;99.90;;;;;;21094300;28;20228;-74
2022/10/23 06:56:35;;;;;;;31.70;5.00;;;11.70;99.90;;;;;;21093183;28;20214;-74
2022/10/23 07:06:37;;;;;;;5.30;4.23;;;11.70;99.90;;;;;;21090961;28;20333;-71
2022/10/23 07:16:39;;;;;;;9.10;4.63;;;11.80;99.90;;;;;;21091287;28;20269;-73
2022/10/23 07:26:40;;;;;;;29.07;4.90;;;11.80;99.90;;;;;;21090330;28;20266;-72
2022/10/23 07:36:42;;;;;;;5.90;4.57;;;11.90;99.90;;;;;;21088370;28;20268;-74
2022/10/23 07:46:44;;;;;;;18.20;5.33;;;11.90;99.90;;;;;;21116912;28;20272;-72
2022/10/23 07:56:45;;;;;;;6.07;4.77;;;12.00;99.90;;;;;;21100970;28;20216;-73
2022/10/23 08:06:48;;;;;;;11.50;5.93;;;12.00;99.90;;;;;;21173377;28;20230;-72
2022/10/23 08:16:49;;;;;;;13.53;5.30;;;12.20;99.90;;;;;;21117294;28;20209;-75
2022/10/23 08:26:51;;;;;;;6.67;5.70;;;12.10;99.90;;;;;;21086966;28;20276;-72
2022/10/23 08:36:53;;;;;;;7.23;6.33;;;12.10;99.90;;;;;;21133642;28;20229;-70
2022/10/23 08:46:58;;;;;;;6.90;5.93;;;12.30;99.90;;;;;;21113747;28;20593;-74
2022/10/23 08:57:08;;;;;;;8.87;6.40;;;12.20;99.90;;;;;;21082819;28;20210;-73
2022/10/23 09:07:38;;;;;;;8.10;5.10;;;12.50;99.90;;;;;;21083103;28;20230;-75
2022/10/23 09:17:42;;;;;;;7.50;5.30;;;12.80;99.90;;;;;;21066760;28;20203;-70
2022/10/23 09:27:55;;;;;;;5.77;4.60;;;13.20;99.90;;;;;;21092524;28;20319;-68
2022/10/23 09:38:01;;;;;;;8.20;4.77;;;13.50;99.90;;;;;;21078450;28;20258;-73
2022/10/23 09:48:15;;;;;;;8.07;4.70;;;14.10;99.90;;;;;;21078364;28;20237;-74
2022/10/23 09:58:26;;;;;;;9.37;4.40;;;14.60;99.90;;;;;;21078179;28;20209;-72
2022/10/23 10:08:43;;;;;;;5.27;4.07;;;14.70;99.90;;;;;;21078387;28;20238;-70
2022/10/23 10:18:49;;;;;;;8.73;4.37;;;15.20;99.90;;;;;;21078577;28;20688;-73
2022/10/23 10:29:11;;;;;;;7.37;4.07;;;15.50;99.90;;;;;;21077980;28;20270;-72
2022/10/23 10:39:40;;;;;;;6.63;3.80;;;16.10;99.90;;;;;;21077903;28;20259;-70
2022/10/23 10:50:02;;;;;;;7.33;3.50;;;16.50;99.90;;;;;;21076908;28;20233;-75
2022/10/23 11:00:13;;;;;;;3.80;3.30;;;16.80;99.90;;;;;;21076217;28;20203;-75
2022/10/23 11:10:17;;;;;;;3.43;3.10;;;17.00;99.90;;;;;;21081693;28;20239;-75
2022/10/23 11:20:28;;;;;;;5.10;2.57;;;17.10;99.90;;;;;;21090948;28;20216;-71
2022/10/23 11:31:07;;;;;;;4.93;2.93;;;17.30;99.90;;;;;;21087882;28;20239;-71
2022/10/23 11:41:25;;;;;;;6.87;5.47;;;17.40;99.90;;;;;;21089128;28;20325;-73
2022/10/23 11:51:32;;;;;;;3.87;2.73;;;17.50;99.90;;;;;;21088373;28;20209;-75
2022/10/23 12:01:44;;;;;;;3.40;2.37;;;17.70;99.90;;;;;;21086334;28;20222;-67
2022/10/23 12:11:59;;;;;;;5.10;2.00;;;17.80;99.90;;;;;;21087178;28;20207;-67
2022/10/23 12:22:02;;;;;;;12.13;2.03;;;18.20;99.90;;;;;;21085576;28;20270;-76
2022/10/23 12:32:28;;;;;;;2.07;1.60;;;18.70;99.90;;;;;;21085247;28;20206;-75
2022/10/23 12:42:30;;;;;;;3.73;2.17;;;18.60;99.90;;;;;;21083933;28;20236;-72
2022/10/23 12:52:34;;;;;;;2.27;1.80;;;18.60;99.90;;;;;;21084240;28;20577;-76
2022/10/23 13:02:36;;;;;;;2.57;2.20;;;18.50;99.90;;;;;;21082842;28;20287;-74
2022/10/23 13:12:40;;;;;;;1.90;1.70;;;18.50;99.90;;;;;;21082505;28;20206;-74
2022/10/23 13:22:50;;;;;;;2.40;2.00;;;18.50;99.90;;;;;;21082272;28;20745;-71
2022/10/23 13:32:53;;;;;;;2.80;2.30;;;18.50;99.90;;;;;;21078279;28;20209;-68
2022/10/23 13:42:56;;;;;;;5.07;2.50;;;18.60;99.90;;;;;;21077648;28;20606;-65
2022/10/23 13:52:58;;;;;;;13.20;2.37;;;18.90;99.90;;;;;;21079705;28;20249;-67
2022/10/23 14:03:00;;;;;;;2.30;2.10;;;19.30;99.90;;;;;;21079357;28;20758;-72
2022/10/23 14:13:01;;;;;;;6.47;2.20;;;19.40;99.60;;;;;;21079313;28;20354;-72
2022/10/23 14:23:03;;;;;;;3.20;1.83;;;19.50;99.30;;;;;;21076065;28;20326;-75
2022/10/23 14:33:04;;;;;;;7.20;2.27;;;19.50;99.00;;;;;;21099406;28;20221;-72
2022/10/23 14:43:06;;;;;;;4.27;2.20;;;19.30;98.90;;;;;;21098298;28;20263;-74
2022/10/23 14:53:08;;;;;;;6.93;2.43;;;19.30;99.00;;;;;;21124397;28;20199;-71
2022/10/23 15:03:10;;;;;;;4.57;2.07;;;19.30;98.90;;;;;;21094065;28;20272;-73
2022/10/23 15:13:12;;;;;;;2.30;2.10;;;19.20;99.00;;;;;;21092123;28;20237;-73
2022/10/23 15:23:13;;;;;;;8.30;2.10;;;19.00;98.90;;;;;;21140264;28;20240;-75
2022/10/23 15:33:15;;;;;;;6.53;2.23;;;18.90;99.30;;;;;;21175555;28;20238;-68
2022/10/23 15:43:20;;;;;;;3.83;3.00;;;18.60;99.40;;;;;;21173912;28;20320;-73
2022/10/23 15:53:22;;;;;;;6.53;3.40;;;18.60;99.90;;;;;;21172479;28;20648;-72
2022/10/23 16:03:23;;;;;;;4.13;2.90;;;18.40;99.90;;;;;;21114301;28;20298;-75
2022/10/23 16:13:26;;;;;;;3.20;2.50;;;18.30;99.90;;;;;;21088283;28;20210;-74
2022/10/23 16:23:28;;;;;;;4.97;2.20;;;18.20;99.90;;;;;;21137656;28;20232;-70
2022/10/23 16:33:29;;;;;;;3.87;2.03;;;18.20;99.90;;;;;;21170752;28;20213;-72
2022/10/23 16:43:31;;;;;;;8.57;3.00;;;18.10;99.90;;;;;;21169824;28;20709;-73
2022/10/23 16:53:33;;;;;;;5.93;3.13;;;18.00;99.90;;;;;;21168133;28;20206;-72
2022/10/23 17:03:37;;;;;;;9.83;4.40;;;17.90;99.90;;;;;;21166761;28;20232;-74
2022/10/23 17:13:42;;;;;;;8.07;4.67;;;17.80;99.90;;;;;;21166343;28;20214;-69
2022/10/23 17:23:44;;;;;;;6.07;3.83;;;17.70;99.90;;;;;;21104621;28;20239;-71
2022/10/23 17:33:48;;;;;;;10.17;4.93;;;17.60;99.90;;;;;;21083110;28;20216;-73
2022/10/23 17:43:50;;;;;;;7.60;3.70;;;17.60;99.90;;;;;;21080115;28;20293;-72
2022/10/23 17:53:54;;;;;;;6.27;3.40;;;17.60;99.90;;;;;;21075130;28;20212;-72
2022/10/23 18:03:59;;;;;;;4.93;3.20;;;17.60;99.90;;;;;;21079205;28;20698;-67
2022/10/23 18:14:02;;;;;;;6.30;3.27;;;17.60;99.90;;;;;;21055059;28;20215;-72
2022/10/23 18:24:04;;;;;;;5.63;2.77;;;17.60;99.90;;;;;;21061752;28;20230;-71
2022/10/23 18:34:21;;;;;;;7.90;2.97;;;17.60;99.90;;;;;;21093820;28;20206;-71
2022/10/23 18:44:24;;;;;;;5.17;2.47;;;17.60;99.90;;;;;;21092871;28;20235;-71
2022/10/23 18:54:25;;;;;;;5.77;2.60;;;17.60;99.90;;;;;;21092198;28;20209;-71
2022/10/23 19:04:28;;;;;;;9.50;2.50;;;17.60;99.90;;;;;;21091296;28;20241;-71
2022/10/23 19:14:34;;;;;;;9.67;3.00;;;17.60;99.90;;;;;;21090714;28;20212;-71
2022/10/23 19:24:40;;;;;;;7.07;3.73;;;17.50;99.90;;;;;;21150140;28;20240;-70
2022/10/23 19:34:42;;;;;;;6.53;2.50;;;17.40;99.90;;;;;;21173387;28;20235;-71
2022/10/23 19:44:44;;;;;;;8.33;2.93;;;17.40;99.90;;;;;;21172586;28;20230;-71
2022/10/23 19:54:46;;;;;;;11.40;3.63;;;17.40;99.90;;;;;;21147507;28;20637;-71
2022/10/23 20:04:47;;;;;;;9.57;3.30;;;17.40;99.90;;;;;;21108496;28;20237;-71
2022/10/23 20:14:49;;;;;;;7.23;3.50;;;17.40;99.90;;;;;;21130085;28;20206;-71
2022/10/23 20:24:51;;;;;;;8.87;3.70;;;17.30;99.90;;;;;;21169381;28;20718;-71
2022/10/23 20:34:53;;;;;;;11.10;4.00;;;17.30;99.90;;;;;;21118042;28;20240;-71
2022/10/23 20:44:54;;;;;;;11.77;4.90;;;17.20;99.90;;;;;;21103195;28;20594;-71
2022/10/23 20:54:56;;;;;;;15.47;5.00;;;17.10;99.90;;;;;;21078352;28;20839;-71
2022/10/23 21:04:58;;;;;;;12.57;4.60;;;17.00;99.90;;;;;;21079402;28;20247;-71
2022/10/23 21:14:59;;;;;;;17.43;5.10;;;16.90;99.90;;;;;;21080339;28;20212;-71
2022/10/23 21:25:01;;;;;;;10.37;4.70;;;16.90;99.90;;;;;;21079448;28;20265;-71
2022/10/23 21:35:03;;;;;;;11.13;4.70;;;16.80;99.90;;;;;;21079159;28;20262;-71
2022/10/23 21:45:05;;;;;;;10.73;4.23;;;16.70;99.90;;;;;;21078013;28;20236;-70
2022/10/23 21:55:07;;;;;;;12.70;5.03;;;16.60;99.90;;;;;;21078976;28;20253;-70
2022/10/23 22:05:09;;;;;;;13.63;5.03;;;16.60;99.90;;;;;;21079590;28;20575;-71
2022/10/23 22:15:11;;;;;;;9.80;4.57;;;16.60;99.90;;;;;;21076890;28;20210;-71
2022/10/23 22:25:12;;;;;;;8.33;4.33;;;16.50;99.90;;;;;;21073298;28;20270;-70
2022/10/23 22:35:14;;;;;;;9.17;4.40;;;16.40;99.90;;;;;;21076689;28;20245;-71
2022/10/23 22:45:16;;;;;;;11.70;4.10;;;16.40;99.90;;;;;;21077735;28;20235;-71
2022/10/23 22:55:17;;;;;;;10.83;5.00;;;16.40;99.90;;;;;;21077519;28;20215;-70
2022/10/23 23:05:19;;;;;;;13.00;4.40;;;16.40;99.90;;;;;;21082062;28;20261;-71
2022/10/23 23:15:20;;;;;;;13.70;4.37;;;16.40;99.90;;;;;;21092209;28;20203;-71
2022/10/23 23:25:22;;;;;;;11.43;3.80;;;16.30;99.90;;;;;;21091416;28;20230;-71
2022/10/23 23:35:24;;;;;;;10.90;4.40;;;16.30;99.90;;;;;;21091212;28;20770;-70
2022/10/23 23:45:26;;;;;;;11.30;3.77;;;16.20;99.90;;;;;;21089896;28;20268;-70
2022/10/23 23:55:28;;;;;;;16.07;4.33;;;16.20;99.90;;;;;;21089177;28;20233;-70
